Pagrindinis puslapis
METAR-TAF:

METAR-TAF

Oro uostai :

Mastrichtas-Achenas, Nyderlandai

platuma: 50-55N, ilguma: 005-47E, Aukštis: 114 m

Dabartinis oras

Ataskaita buvo paskelbta 34 minutes, ne 09:55 UTC
Vėjas 8 kt iš Rytų, svyruoja nuo Šiaurės Rytų ir Rytų/Pietryčių
Temperatūra 17°C
Drėgmė 42%
Slėgis 1028 hPa
Matomumas 10 km arba daugiau

METAR: EHBK 200955Z AUTO 09008KT 050V120 9999 NSC 17/04 Q1028 NOSIG

Laikas: 12:29 (10:29 UTC)

Prognozė

Ataskaita buvo paskelbta 5 valandos ir 41 minutes, ne 04:48 UTC
Prognozė galioja nuo 20 metu 06 UTC su 21 metu 12 UTC
Vėjas 5 kt iš Šiaurės Rytų
Matomumas 10 km arba daugiau
nėra debesų žemiau 1500 m ir nėra kamuolinių lietaus debesų
Tapsmas
nuo 20 metu 12 UTC su 20 metu 15 UTC
Vėjas 10 kt iš Rytų
Tapsmas
nuo 21 metu 09 UTC su 21 metu 12 UTC
Vėjas 8 kt iš Rytų/Pietryčių

TAF: EHBK 200448Z 2006/2112 05005KT CAVOK BECMG 2012/2015 08010KT BECMG 2109/2112 12008KT

Orai ataskaitas ir orų prognozės (METAR, TAF).

turimą stotys yra geltonos ir raudonos taškus žemėlapyje.

Perkelti pele per norėdami pamatyti stoties vardą.

Tada spustelėkite, norėdami matyti oro stebėjimo ir prognozės.

Norėdami pakeisti žemėlapį: spustelėkite ant žalios mygtukų su juodo kryžiaus žemyn,; žalią mygtuką su brūkšneliu, jei norite nutolinti; arba žalių rodyklių gretimoms žemėlapius.


METAR-TAF: